Weather at Nhon Co Airfield

Public forecast

Using degrees Celsius for public forecast. Weather courtesy of forecast.io.

Closest aviation weather report (METAR) to Nhon Co Airfield

Closest report is Tan Son Nhat International Airport, 87.9 nm (162.8 km) SW.

2024/07/20 13:00 (retrieved 30 minutes ago)

VVTS 201300Z 23006KT 9999 -RA OVC100 27/25 Q1008 NOSIG

Closest aviation forecast (TAF) to Nhon Co Airfield

Closest forecast is Tan Son Nhat International Airport, 87.9 nm (162.8 km) SW.

2024/07/20 12:41 (retrieved 49 minutes ago)

TAF VVTS 201100Z 2012/2118 25008KT 9999 SCT017 SCT040 TEMPO 2105/2110 24015G28KT 5000 TSRA BKN015 FEW017CB BKN040